Airfield :
LOGIN :

Register | Disclaimer

   EN    FR    IT 

 










Legend :    VFR   Marginal VFR   IFR   Intensive IFR   Very Intensive IFR
Visi :
Ceiling :
>= 8 km
>= 3000ft
5 to 8 km
1000 to 3000 ft
1500m to 5 km
500 to 1000 ft
800 to 1500m
200 to 500 ft
< 800m
< 200 ft
Symbols :   Thunderstorms  Fog  Heavy snow  Heavy precipitations  Wind > 20 kt
SIGMETs :     Misc.  Thunderstorms  Icing  Turbulence  Mountain Waves  Volcanic Ashes






- Airport Elevation : 3 ft
- IATA code : LWR


EHLW - Leuuwarden Air Base

CURRENT METAR :
  • 231925Z AUTO 20002KT 9999 NCD 14/11 Q1015 BLU

EXPIRED METARs :
  • 231855Z AUTO 21004KT 170V230 9999 NCD 15/11 Q1015 BLU
  • 231825Z AUTO 23005KT 200V260 9999 NCD 16/11 Q1015 BLU
  • 231755Z AUTO 24009KT 200V260 9999 NCD 16/10 Q1015 BLU RMK CB INFO NOT AVBL TS INFO NOT AVBL
  • 231725Z AUTO 24009KT 9999 FEW024 16/11 Q1015 BLU
  • 231659Z AUTO 25012KT 210V280 9999 FEW023 SCT027 16/11 Q1015 BLU
  • 231625Z AUTO 26012KT 220V280 9999 FEW021 17/12 Q1014 BLU
  • 231555Z AUTO 25009KT 220V290 9999 FEW025 BKN031 18/12 Q1014 BLU
  • 231535Z AUTO 25011KT 210V290 9999 FEW024 SCT027 17/12 Q1014 BLU
  • 231531Z AUTO 25010KT 210V280 9999 SCT024 SCT030 18/12 Q1014 WHT
  • 231504Z AUTO 25011KT 220V290 9999 FEW023 BKN027 BKN031 18/12 Q1014 BLU
  • 231456Z AUTO 25011KT 220V300 9999 SCT023 BKN027 OVC032 18/12 Q1014 WHT

TAF TAF EHLW
Valid from the 23 at 17:00 until the 24 at 05:00 UTC


231622Z 2317/2405 25013KT 9999 SCT025 BKN030
BECMG 2319/2321 15004KT
BECMG 2323/2402 3500 BR MIFG
PROB30
TEMPO 2401/2405 1500 BCFG



MET'MAP, your aeronautical weather chart ! - Copyright ORBIFLY December 2007 - Disclaimer

ORBIFLY MET'MAP TEAM :

Programming & Development : Alexandra Zaïnal
Original concept : Baudouin d'Aumeries
Technical & hardware support : Manuel Goepfert
Assistance : Marc-Olivier Méhu




SOURCES & CREDITS :

   NOAA